sensor_id;sensor_type;location;lat;lon;timestamp;P1;durP1;ratioP1;P2;durP2;ratioP2
53644;SDS011;39547;45.554;12.068;2023-05-01T00:01:11;11.48;;;4.20;;
53644;SDS011;39547;45.554;12.068;2023-05-01T00:07:13;11.95;;;4.40;;
53644;SDS011;39547;45.554;12.068;2023-05-01T00:13:14;11.77;;;4.32;;
53644;SDS011;39547;45.554;12.068;2023-05-01T00:19:17;12.88;;;4.88;;
53644;SDS011;39547;45.554;12.068;2023-05-01T00:25:19;12.80;;;5.03;;
53644;SDS011;39547;45.554;12.068;2023-05-01T00:31:22;12.55;;;4.88;;
53644;SDS011;39547;45.554;12.068;2023-05-01T00:37:24;12.82;;;5.20;;
53644;SDS011;39547;45.554;12.068;2023-05-01T00:43:25;13.02;;;5.00;;
53644;SDS011;39547;45.554;12.068;2023-05-01T00:49:27;12.88;;;5.15;;
53644;SDS011;39547;45.554;12.068;2023-05-01T00:55:29;13.85;;;6.07;;
53644;SDS011;39547;45.554;12.068;2023-05-01T01:01:31;12.80;;;5.50;;
53644;SDS011;39547;45.554;12.068;2023-05-01T01:07:43;13.77;;;5.45;;
53644;SDS011;39547;45.554;12.068;2023-05-01T01:40:14;13.40;;;5.43;;
53644;SDS011;39547;45.554;12.068;2023-05-01T01:46:18;13.90;;;5.68;;
53644;SDS011;39547;45.554;12.068;2023-05-01T01:52:23;14.02;;;5.47;;
53644;SDS011;39547;45.554;12.068;2023-05-01T01:58:27;14.05;;;5.63;;
53644;SDS011;39547;45.554;12.068;2023-05-01T02:04:30;15.03;;;6.03;;
53644;SDS011;39547;45.554;12.068;2023-05-01T02:10:33;13.13;;;5.57;;
53644;SDS011;39547;45.554;12.068;2023-05-01T02:16:37;14.45;;;5.85;;
53644;SDS011;39547;45.554;12.068;2023-05-01T02:22:40;14.77;;;5.70;;
53644;SDS011;39547;45.554;12.068;2023-05-01T02:28:43;13.27;;;5.63;;
53644;SDS011;39547;45.554;12.068;2023-05-01T02:34:45;13.60;;;5.82;;
53644;SDS011;39547;45.554;12.068;2023-05-01T02:40:48;13.30;;;5.80;;
53644;SDS011;39547;45.554;12.068;2023-05-01T02:46:52;13.20;;;5.15;;
53644;SDS011;39547;45.554;12.068;2023-05-01T02:52:56;12.82;;;5.28;;
53644;SDS011;39547;45.554;12.068;2023-05-01T02:59:12;13.20;;;5.70;;
53644;SDS011;39547;45.554;12.068;2023-05-01T03:05:13;12.95;;;5.50;;
53644;SDS011;39547;45.554;12.068;2023-05-01T03:11:15;13.25;;;5.40;;
53644;SDS011;39547;45.554;12.068;2023-05-01T03:17:17;13.85;;;5.65;;
53644;SDS011;39547;45.554;12.068;2023-05-01T03:23:18;12.90;;;5.28;;
53644;SDS011;39547;45.554;12.068;2023-05-01T03:29:21;12.90;;;5.20;;
53644;SDS011;39547;45.554;12.068;2023-05-01T03:35:22;12.43;;;5.15;;
53644;SDS011;39547;45.554;12.068;2023-05-01T03:41:24;13.40;;;5.80;;
53644;SDS011;39547;45.554;12.068;2023-05-01T03:47:28;13.43;;;5.50;;
53644;SDS011;39547;45.554;12.068;2023-05-01T03:53:30;13.85;;;5.90;;
53644;SDS011;39547;45.554;12.068;2023-05-01T03:59:33;13.40;;;5.78;;
53644;SDS011;39547;45.554;12.068;2023-05-01T04:05:35;12.82;;;5.40;;
53644;SDS011;39547;45.554;12.068;2023-05-01T04:11:37;13.73;;;5.70;;
53644;SDS011;39547;45.554;12.068;2023-05-01T04:17:39;13.52;;;5.13;;
53644;SDS011;39547;45.554;12.068;2023-05-01T04:23:40;13.52;;;5.15;;
53644;SDS011;39547;45.554;12.068;2023-05-01T04:29:42;12.93;;;5.10;;
53644;SDS011;39547;45.554;12.068;2023-05-01T04:35:43;13.50;;;5.20;;
53644;SDS011;39547;45.554;12.068;2023-05-01T04:41:45;12.80;;;5.07;;
53644;SDS011;39547;45.554;12.068;2023-05-01T04:47:47;13.18;;;5.22;;
53644;SDS011;39547;45.554;12.068;2023-05-01T04:53:48;14.05;;;5.65;;
53644;SDS011;39547;45.554;12.068;2023-05-01T04:59:55;12.50;;;4.97;;
53644;SDS011;39547;45.554;12.068;2023-05-01T05:05:56;13.32;;;5.18;;
53644;SDS011;39547;45.554;12.068;2023-05-01T05:11:58;12.73;;;5.50;;
53644;SDS011;39547;45.554;12.068;2023-05-01T05:18:00;13.55;;;5.70;;
53644;SDS011;39547;45.554;12.068;2023-05-01T05:24:02;12.70;;;5.00;;
53644;SDS011;39547;45.554;12.068;2023-05-01T05:30:04;13.25;;;5.53;;
53644;SDS011;39547;45.554;12.068;2023-05-01T05:36:06;14.15;;;5.57;;
53644;SDS011;39547;45.554;12.068;2023-05-01T05:42:13;12.82;;;5.63;;
53644;SDS011;39547;45.554;12.068;2023-05-01T05:48:15;14.45;;;5.50;;
53644;SDS011;39547;45.554;12.068;2023-05-01T05:54:17;14.05;;;6.07;;
53644;SDS011;39547;45.554;12.068;2023-05-01T06:00:20;15.73;;;7.20;;
53644;SDS011;39547;45.554;12.068;2023-05-01T06:06:24;14.40;;;6.70;;
53644;SDS011;39547;45.554;12.068;2023-05-01T06:12:27;13.25;;;5.88;;
53644;SDS011;39547;45.554;12.068;2023-05-01T06:18:29;15.15;;;7.00;;
53644;SDS011;39547;45.554;12.068;2023-05-01T06:24:31;13.98;;;6.28;;
53644;SDS011;39547;45.554;12.068;2023-05-01T06:30:34;13.63;;;5.72;;
53644;SDS011;39547;45.554;12.068;2023-05-01T06:36:36;13.00;;;5.65;;
53644;SDS011;39547;45.554;12.068;2023-05-01T06:42:38;12.63;;;5.28;;
53644;SDS011;39547;45.554;12.068;2023-05-01T06:48:39;12.48;;;5.18;;
53644;SDS011;39547;45.554;12.068;2023-05-01T06:54:41;12.50;;;5.18;;
53644;SDS011;39547;45.554;12.068;2023-05-01T07:00:43;13.57;;;5.13;;
53644;SDS011;39547;45.554;12.068;2023-05-01T07:06:44;12.50;;;5.03;;
53644;SDS011;39547;45.554;12.068;2023-05-01T07:12:45;13.45;;;5.13;;
53644;SDS011;39547;45.554;12.068;2023-05-01T07:18:47;12.38;;;4.97;;
53644;SDS011;39547;45.554;12.068;2023-05-01T07:24:48;12.18;;;4.72;;
53644;SDS011;39547;45.554;12.068;2023-05-01T07:30:50;12.93;;;5.28;;
53644;SDS011;39547;45.554;12.068;2023-05-01T07:36:51;12.68;;;4.72;;
53644;SDS011;39547;45.554;12.068;2023-05-01T07:42:52;14.00;;;4.80;;
53644;SDS011;39547;45.554;12.068;2023-05-01T07:48:54;12.40;;;4.70;;
53644;SDS011;39547;45.554;12.068;2023-05-01T07:54:56;11.75;;;4.43;;
53644;SDS011;39547;45.554;12.068;2023-05-01T08:00:57;12.27;;;4.55;;
53644;SDS011;39547;45.554;12.068;2023-05-01T08:06:58;12.70;;;4.70;;
53644;SDS011;39547;45.554;12.068;2023-05-01T08:13:00;11.88;;;4.20;;
53644;SDS011;39547;45.554;12.068;2023-05-01T08:19:01;11.52;;;4.18;;
53644;SDS011;39547;45.554;12.068;2023-05-01T08:25:04;12.20;;;4.22;;
53644;SDS011;39547;45.554;12.068;2023-05-01T08:31:06;12.60;;;4.28;;
53644;SDS011;39547;45.554;12.068;2023-05-01T08:37:07;12.45;;;4.43;;
53644;SDS011;39547;45.554;12.068;2023-05-01T08:43:09;11.55;;;3.80;;
53644;SDS011;39547;45.554;12.068;2023-05-01T08:49:11;11.98;;;4.18;;
53644;SDS011;39547;45.554;12.068;2023-05-01T08:55:16;11.68;;;4.28;;
53644;SDS011;39547;45.554;12.068;2023-05-01T09:01:19;11.50;;;3.80;;
53644;SDS011;39547;45.554;12.068;2023-05-01T09:07:23;12.05;;;4.00;;
53644;SDS011;39547;45.554;12.068;2023-05-01T09:13:25;10.88;;;3.75;;
53644;SDS011;39547;45.554;12.068;2023-05-01T09:19:26;13.02;;;4.18;;
53644;SDS011;39547;45.554;12.068;2023-05-01T09:25:28;12.82;;;5.60;;
53644;SDS011;39547;45.554;12.068;2023-05-01T09:31:30;15.30;;;6.15;;
53644;SDS011;39547;45.554;12.068;2023-05-01T09:37:32;10.70;;;3.90;;
53644;SDS011;39547;45.554;12.068;2023-05-01T09:43:34;11.45;;;3.70;;
53644;SDS011;39547;45.554;12.068;2023-05-01T09:49:45;11.63;;;4.10;;
53644;SDS011;39547;45.554;12.068;2023-05-01T09:55:59;10.70;;;3.60;;
53644;SDS011;39547;45.554;12.068;2023-05-01T10:02:01;11.25;;;3.97;;
53644;SDS011;39547;45.554;12.068;2023-05-01T10:08:02;12.05;;;3.50;;
53644;SDS011;39547;45.554;12.068;2023-05-01T10:14:06;11.05;;;3.67;;
53644;SDS011;39547;45.554;12.068;2023-05-01T10:20:09;11.30;;;3.57;;
53644;SDS011;39547;45.554;12.068;2023-05-01T10:26:14;10.32;;;3.28;;
53644;SDS011;39547;45.554;12.068;2023-05-01T10:32:19;11.18;;;3.50;;
53644;SDS011;39547;45.554;12.068;2023-05-01T10:38:22;10.98;;;3.63;;
53644;SDS011;39547;45.554;12.068;2023-05-01T10:44:28;11.02;;;3.45;;
53644;SDS011;39547;45.554;12.068;2023-05-01T10:50:30;10.73;;;3.75;;
53644;SDS011;39547;45.554;12.068;2023-05-01T11:02:33;11.38;;;3.42;;
53644;SDS011;39547;45.554;12.068;2023-05-01T11:08:36;10.88;;;3.60;;
53644;SDS011;39547;45.554;12.068;2023-05-01T11:21:05;10.40;;;3.30;;
53644;SDS011;39547;45.554;12.068;2023-05-01T11:27:07;10.75;;;3.40;;
53644;SDS011;39547;45.554;12.068;2023-05-01T11:33:12;11.02;;;3.50;;
53644;SDS011;39547;45.554;12.068;2023-05-01T11:39:20;10.77;;;3.45;;
53644;SDS011;39547;45.554;12.068;2023-05-01T11:45:22;11.18;;;3.30;;
53644;SDS011;39547;45.554;12.068;2023-05-01T11:51:23;11.70;;;3.40;;
53644;SDS011;39547;45.554;12.068;2023-05-01T11:57:26;11.00;;;3.45;;
53644;SDS011;39547;45.554;12.068;2023-05-01T12:03:31;11.10;;;3.58;;
53644;SDS011;39547;45.554;12.068;2023-05-01T12:09:41;10.67;;;3.20;;
53644;SDS011;39547;45.554;12.068;2023-05-01T12:15:44;11.25;;;3.30;;
53644;SDS011;39547;45.554;12.068;2023-05-01T12:21:46;11.05;;;3.20;;
53644;SDS011;39547;45.554;12.068;2023-05-01T12:27:48;10.40;;;3.20;;
53644;SDS011;39547;45.554;12.068;2023-05-01T12:33:56;12.00;;;4.63;;
53644;SDS011;39547;45.554;12.068;2023-05-01T12:39:58;15.60;;;6.93;;
53644;SDS011;39547;45.554;12.068;2023-05-01T12:45:59;12.63;;;4.40;;
53644;SDS011;39547;45.554;12.068;2023-05-01T12:52:02;11.30;;;4.10;;
53644;SDS011;39547;45.554;12.068;2023-05-01T12:58:06;11.73;;;3.80;;
53644;SDS011;39547;45.554;12.068;2023-05-01T13:04:07;10.85;;;3.60;;
53644;SDS011;39547;45.554;12.068;2023-05-01T13:10:09;12.20;;;3.50;;
53644;SDS011;39547;45.554;12.068;2023-05-01T13:16:14;11.00;;;3.30;;
53644;SDS011;39547;45.554;12.068;2023-05-01T13:22:16;10.57;;;3.40;;
53644;SDS011;39547;45.554;12.068;2023-05-01T13:28:18;11.48;;;3.63;;
53644;SDS011;39547;45.554;12.068;2023-05-01T13:34:22;12.88;;;3.85;;
53644;SDS011;39547;45.554;12.068;2023-05-01T13:40:28;11.18;;;4.20;;
53644;SDS011;39547;45.554;12.068;2023-05-01T13:46:33;14.77;;;5.78;;
53644;SDS011;39547;45.554;12.068;2023-05-01T13:52:40;14.32;;;5.43;;
53644;SDS011;39547;45.554;12.068;2023-05-01T13:58:46;13.00;;;4.55;;
53644;SDS011;39547;45.554;12.068;2023-05-01T14:04:54;11.32;;;4.10;;
53644;SDS011;39547;45.554;12.068;2023-05-01T14:10:57;11.60;;;3.80;;
53644;SDS011;39547;45.554;12.068;2023-05-01T14:16:58;11.40;;;3.70;;
53644;SDS011;39547;45.554;12.068;2023-05-01T14:23:00;11.35;;;3.50;;
53644;SDS011;39547;45.554;12.068;2023-05-01T14:29:01;11.15;;;3.72;;
53644;SDS011;39547;45.554;12.068;2023-05-01T14:35:04;11.20;;;3.65;;
53644;SDS011;39547;45.554;12.068;2023-05-01T14:41:10;11.60;;;3.40;;
53644;SDS011;39547;45.554;12.068;2023-05-01T14:47:12;10.80;;;3.50;;
53644;SDS011;39547;45.554;12.068;2023-05-01T14:53:19;12.00;;;3.75;;
53644;SDS011;39547;45.554;12.068;2023-05-01T14:59:21;10.48;;;3.20;;
53644;SDS011;39547;45.554;12.068;2023-05-01T15:05:24;10.48;;;3.28;;
53644;SDS011;39547;45.554;12.068;2023-05-01T15:11:25;11.27;;;3.45;;
53644;SDS011;39547;45.554;12.068;2023-05-01T15:17:27;11.25;;;3.33;;
53644;SDS011;39547;45.554;12.068;2023-05-01T15:23:29;10.20;;;3.20;;
53644;SDS011;39547;45.554;12.068;2023-05-01T15:29:31;10.32;;;3.00;;
53644;SDS011;39547;45.554;12.068;2023-05-01T15:35:32;10.30;;;3.25;;
53644;SDS011;39547;45.554;12.068;2023-05-01T15:41:34;11.18;;;3.85;;
53644;SDS011;39547;45.554;12.068;2023-05-01T15:47:36;10.95;;;3.35;;
53644;SDS011;39547;45.554;12.068;2023-05-01T15:53:37;12.60;;;3.75;;
53644;SDS011;39547;45.554;12.068;2023-05-01T15:59:39;11.10;;;3.70;;
53644;SDS011;39547;45.554;12.068;2023-05-01T16:05:41;11.63;;;4.13;;
53644;SDS011;39547;45.554;12.068;2023-05-01T16:11:46;11.82;;;4.10;;
53644;SDS011;39547;45.554;12.068;2023-05-01T16:17:47;12.85;;;4.97;;
53644;SDS011;39547;45.554;12.068;2023-05-01T16:23:51;12.90;;;5.17;;
53644;SDS011;39547;45.554;12.068;2023-05-01T16:29:55;12.52;;;4.90;;
53644;SDS011;39547;45.554;12.068;2023-05-01T16:35:56;12.07;;;4.70;;
53644;SDS011;39547;45.554;12.068;2023-05-01T16:41:59;11.40;;;4.28;;
53644;SDS011;39547;45.554;12.068;2023-05-01T16:48:01;12.93;;;4.70;;
53644;SDS011;39547;45.554;12.068;2023-05-01T16:54:03;12.95;;;5.22;;
53644;SDS011;39547;45.554;12.068;2023-05-01T17:00:04;12.30;;;4.82;;
53644;SDS011;39547;45.554;12.068;2023-05-01T17:06:09;13.70;;;5.40;;
53644;SDS011;39547;45.554;12.068;2023-05-01T17:12:10;14.82;;;6.47;;
53644;SDS011;39547;45.554;12.068;2023-05-01T17:18:12;13.77;;;6.00;;
53644;SDS011;39547;45.554;12.068;2023-05-01T17:24:13;14.15;;;5.93;;
53644;SDS011;39547;45.554;12.068;2023-05-01T17:30:15;15.48;;;6.85;;
53644;SDS011;39547;45.554;12.068;2023-05-01T17:36:18;14.82;;;6.95;;
53644;SDS011;39547;45.554;12.068;2023-05-01T17:42:20;14.45;;;6.20;;
53644;SDS011;39547;45.554;12.068;2023-05-01T17:48:21;14.82;;;6.97;;
53644;SDS011;39547;45.554;12.068;2023-05-01T17:54:23;14.63;;;6.50;;
53644;SDS011;39547;45.554;12.068;2023-05-01T18:00:24;13.20;;;5.68;;
53644;SDS011;39547;45.554;12.068;2023-05-01T18:06:27;13.52;;;5.57;;
53644;SDS011;39547;45.554;12.068;2023-05-01T18:12:28;14.68;;;5.90;;
53644;SDS011;39547;45.554;12.068;2023-05-01T18:18:31;13.18;;;5.40;;
53644;SDS011;39547;45.554;12.068;2023-05-01T18:24:33;13.38;;;5.55;;
53644;SDS011;39547;45.554;12.068;2023-05-01T18:30:34;14.57;;;6.53;;
53644;SDS011;39547;45.554;12.068;2023-05-01T18:36:35;14.32;;;5.97;;
53644;SDS011;39547;45.554;12.068;2023-05-01T18:42:38;13.70;;;5.97;;
53644;SDS011;39547;45.554;12.068;2023-05-01T18:48:41;15.40;;;7.25;;
53644;SDS011;39547;45.554;12.068;2023-05-01T18:54:42;15.70;;;7.68;;
53644;SDS011;39547;45.554;12.068;2023-05-01T19:00:45;15.40;;;7.25;;
53644;SDS011;39547;45.554;12.068;2023-05-01T19:06:46;14.95;;;6.85;;
53644;SDS011;39547;45.554;12.068;2023-05-01T19:12:48;14.00;;;6.05;;
53644;SDS011;39547;45.554;12.068;2023-05-01T19:18:49;14.88;;;6.65;;
53644;SDS011;39547;45.554;12.068;2023-05-01T19:24:51;14.52;;;6.57;;
53644;SDS011;39547;45.554;12.068;2023-05-01T19:30:52;14.80;;;6.88;;
53644;SDS011;39547;45.554;12.068;2023-05-01T19:36:54;14.85;;;6.43;;
53644;SDS011;39547;45.554;12.068;2023-05-01T19:42:59;14.75;;;6.50;;
53644;SDS011;39547;45.554;12.068;2023-05-01T19:49:01;14.57;;;6.65;;
53644;SDS011;39547;45.554;12.068;2023-05-01T19:55:03;14.50;;;6.47;;
53644;SDS011;39547;45.554;12.068;2023-05-01T20:01:05;15.40;;;7.25;;
53644;SDS011;39547;45.554;12.068;2023-05-01T20:07:08;16.80;;;8.63;;
53644;SDS011;39547;45.554;12.068;2023-05-01T20:13:10;15.27;;;7.30;;
53644;SDS011;39547;45.554;12.068;2023-05-01T20:19:11;17.85;;;8.95;;
53644;SDS011;39547;45.554;12.068;2023-05-01T20:25:13;15.35;;;6.93;;
53644;SDS011;39547;45.554;12.068;2023-05-01T20:31:15;16.83;;;7.93;;
53644;SDS011;39547;45.554;12.068;2023-05-01T20:37:16;16.92;;;8.48;;
53644;SDS011;39547;45.554;12.068;2023-05-01T20:43:18;17.80;;;8.80;;
53644;SDS011;39547;45.554;12.068;2023-05-01T20:49:20;17.20;;;8.95;;
53644;SDS011;39547;45.554;12.068;2023-05-01T20:55:22;18.30;;;9.52;;
53644;SDS011;39547;45.554;12.068;2023-05-01T21:01:24;17.60;;;9.40;;
53644;SDS011;39547;45.554;12.068;2023-05-01T21:07:25;16.98;;;8.38;;
53644;SDS011;39547;45.554;12.068;2023-05-01T21:13:29;19.53;;;9.77;;
53644;SDS011;39547;45.554;12.068;2023-05-01T21:19:44;18.40;;;9.85;;
53644;SDS011;39547;45.554;12.068;2023-05-01T21:25:46;16.95;;;8.52;;
53644;SDS011;39547;45.554;12.068;2023-05-01T21:31:48;14.68;;;7.03;;
53644;SDS011;39547;45.554;12.068;2023-05-01T21:37:49;14.05;;;7.03;;
53644;SDS011;39547;45.554;12.068;2023-05-01T21:43:51;15.77;;;6.68;;
53644;SDS011;39547;45.554;12.068;2023-05-01T21:49:55;16.70;;;7.88;;
53644;SDS011;39547;45.554;12.068;2023-05-01T21:55:57;20.15;;;10.32;;
53644;SDS011;39547;45.554;12.068;2023-05-01T22:02:02;18.25;;;8.93;;
53644;SDS011;39547;45.554;12.068;2023-05-01T22:08:05;19.52;;;9.35;;
53644;SDS011;39547;45.554;12.068;2023-05-01T22:14:07;17.73;;;8.80;;
53644;SDS011;39547;45.554;12.068;2023-05-01T22:20:08;19.15;;;10.32;;
53644;SDS011;39547;45.554;12.068;2023-05-01T22:26:10;22.45;;;12.30;;
53644;SDS011;39547;45.554;12.068;2023-05-01T22:32:12;26.35;;;13.63;;
53644;SDS011;39547;45.554;12.068;2023-05-01T22:38:13;25.75;;;14.23;;
53644;SDS011;39547;45.554;12.068;2023-05-01T22:44:15;23.70;;;12.77;;
53644;SDS011;39547;45.554;12.068;2023-05-01T22:50:16;20.67;;;11.23;;
53644;SDS011;39547;45.554;12.068;2023-05-01T22:56:18;21.08;;;10.65;;
53644;SDS011;39547;45.554;12.068;2023-05-01T23:02:19;22.15;;;12.15;;
53644;SDS011;39547;45.554;12.068;2023-05-01T23:08:21;19.52;;;10.32;;
53644;SDS011;39547;45.554;12.068;2023-05-01T23:14:23;19.42;;;10.25;;
53644;SDS011;39547;45.554;12.068;2023-05-01T23:20:25;20.13;;;11.20;;
53644;SDS011;39547;45.554;12.068;2023-05-01T23:26:27;18.60;;;9.63;;
53644;SDS011;39547;45.554;12.068;2023-05-01T23:32:30;21.55;;;11.50;;
53644;SDS011;39547;45.554;12.068;2023-05-01T23:38:31;22.35;;;12.40;;
53644;SDS011;39547;45.554;12.068;2023-05-01T23:44:33;17.60;;;9.27;;
53644;SDS011;39547;45.554;12.068;2023-05-01T23:50:34;17.20;;;9.15;;
53644;SDS011;39547;45.554;12.068;2023-05-01T23:56:37;16.30;;;8.15;;
